sensor_id;sensor_type;location;lat;lon;timestamp;pressure;altitude;pressure_sealevel;temperature;humidity
77106;BME280;66057;54.718;18.426;2023-07-20T00:00:46;47310.59;;;-143.26;81.57
77106;BME280;66057;54.718;18.426;2023-07-20T00:03:29;47308.66;;;-143.26;81.49
77106;BME280;66057;54.718;18.426;2023-07-20T00:05:54;47326.19;;;-143.26;81.70
77106;BME280;66057;54.718;18.426;2023-07-20T00:08:20;47302.78;;;-143.26;81.34
77106;BME280;66057;54.718;18.426;2023-07-20T00:10:46;47298.91;;;-143.26;81.42
77106;BME280;66057;54.718;18.426;2023-07-20T00:13:12;47312.56;;;-143.26;81.40
77106;BME280;66057;54.718;18.426;2023-07-20T00:15:38;47302.78;;;-143.26;81.80
77106;BME280;66057;54.718;18.426;2023-07-20T00:18:04;47328.16;;;-143.26;82.83
77106;BME280;66057;54.718;18.426;2023-07-20T00:20:30;47306.69;;;-143.26;82.38
77106;BME280;66057;54.718;18.426;2023-07-20T00:22:57;47298.91;;;-143.26;82.20
77106;BME280;66057;54.718;18.426;2023-07-20T00:25:24;47326.19;;;-143.26;82.46
77106;BME280;66057;54.718;18.426;2023-07-20T00:27:50;47324.25;;;-143.26;82.19
77106;BME280;66057;54.718;18.426;2023-07-20T00:30:15;47324.25;;;-143.26;80.43
77106;BME280;66057;54.718;18.426;2023-07-20T00:32:42;47310.59;;;-143.26;79.99
77106;BME280;66057;54.718;18.426;2023-07-20T00:35:08;47300.84;;;-143.26;80.09
77106;BME280;66057;54.718;18.426;2023-07-20T00:37:34;47322.31;;;-143.26;79.90
77106;BME280;66057;54.718;18.426;2023-07-20T00:40:00;47351.56;;;-143.26;80.09
77106;BME280;66057;54.718;18.426;2023-07-20T00:42:26;47326.19;;;-143.26;80.21
77106;BME280;66057;54.718;18.426;2023-07-20T00:44:51;47302.78;;;-143.26;80.04
77106;BME280;66057;54.718;18.426;2023-07-20T00:47:17;47295.00;;;-143.26;80.48
77106;BME280;66057;54.718;18.426;2023-07-20T00:49:43;47300.84;;;-143.26;80.12
77106;BME280;66057;54.718;18.426;2023-07-20T00:52:13;47281.34;;;-143.26;80.17
77106;BME280;66057;54.718;18.426;2023-07-20T00:54:41;47351.56;;;-143.26;80.17
77106;BME280;66057;54.718;18.426;2023-07-20T00:57:07;47308.66;;;-143.26;79.89
77106;BME280;66057;54.718;18.426;2023-07-20T00:59:36;47306.69;;;-143.26;80.10
77106;BME280;66057;54.718;18.426;2023-07-20T01:02:02;47330.09;;;-143.26;79.75
77106;BME280;66057;54.718;18.426;2023-07-20T01:04:28;47300.84;;;-143.26;79.93
77106;BME280;66057;54.718;18.426;2023-07-20T01:07:06;47312.56;;;-143.26;80.01
77106;BME280;66057;54.718;18.426;2023-07-20T01:10:03;47330.09;;;-143.26;80.38
77106;BME280;66057;54.718;18.426;2023-07-20T01:12:30;47314.50;;;-143.26;80.39
77106;BME280;66057;54.718;18.426;2023-07-20T01:14:58;47300.84;;;-143.26;80.62
77106;BME280;66057;54.718;18.426;2023-07-20T01:17:24;47326.19;;;-143.26;80.51
77106;BME280;66057;54.718;18.426;2023-07-20T01:19:50;47318.41;;;-143.26;80.24
77106;BME280;66057;54.718;18.426;2023-07-20T01:22:33;47322.31;;;-143.26;80.42
77106;BME280;66057;54.718;18.426;2023-07-20T01:25:18;47318.41;;;-143.26;80.17
77106;BME280;66057;54.718;18.426;2023-07-20T01:30:45;47341.81;;;-143.26;80.70
77106;BME280;66057;54.718;18.426;2023-07-20T01:33:13;47293.03;;;-143.26;80.91
77106;BME280;66057;54.718;18.426;2023-07-20T01:35:41;47326.19;;;-143.26;80.98
77106;BME280;66057;54.718;18.426;2023-07-20T01:38:07;47343.75;;;-143.26;80.79
77106;BME280;66057;54.718;18.426;2023-07-20T01:40:34;47322.31;;;-143.26;81.24
77106;BME280;66057;54.718;18.426;2023-07-20T01:43:00;47308.66;;;-143.26;81.27
77106;BME280;66057;54.718;18.426;2023-07-20T01:45:27;47328.16;;;-143.26;81.17
77106;BME280;66057;54.718;18.426;2023-07-20T01:47:53;47335.97;;;-143.26;81.69
77106;BME280;66057;54.718;18.426;2023-07-20T01:50:18;47326.19;;;-143.26;81.59
77106;BME280;66057;54.718;18.426;2023-07-20T01:52:44;47310.59;;;-143.26;81.21
77106;BME280;66057;54.718;18.426;2023-07-20T01:55:10;47306.69;;;-143.26;81.78
77106;BME280;66057;54.718;18.426;2023-07-20T01:57:37;47322.31;;;-143.26;81.40
77106;BME280;66057;54.718;18.426;2023-07-20T02:00:03;47316.44;;;-143.26;81.63
77106;BME280;66057;54.718;18.426;2023-07-20T02:02:29;47341.81;;;-143.26;81.44
77106;BME280;66057;54.718;18.426;2023-07-20T02:04:55;47310.59;;;-143.26;81.28
77106;BME280;66057;54.718;18.426;2023-07-20T02:07:22;47332.06;;;-143.26;81.08
77106;BME280;66057;54.718;18.426;2023-07-20T02:09:47;47318.41;;;-143.26;80.84
77106;BME280;66057;54.718;18.426;2023-07-20T02:12:13;47324.25;;;-143.26;80.63
77106;BME280;66057;54.718;18.426;2023-07-20T02:14:39;47302.78;;;-143.26;80.98
77106;BME280;66057;54.718;18.426;2023-07-20T02:17:05;47314.50;;;-143.26;80.81
77106;BME280;66057;54.718;18.426;2023-07-20T02:19:30;47318.41;;;-143.26;80.82
77106;BME280;66057;54.718;18.426;2023-07-20T02:21:56;47314.50;;;-143.26;81.14
77106;BME280;66057;54.718;18.426;2023-07-20T02:24:23;47304.75;;;-143.26;81.16
77106;BME280;66057;54.718;18.426;2023-07-20T02:26:49;47320.34;;;-143.26;80.42
77106;BME280;66057;54.718;18.426;2023-07-20T02:29:14;47300.84;;;-143.26;80.82
77106;BME280;66057;54.718;18.426;2023-07-20T02:31:40;47279.38;;;-143.26;80.53
77106;BME280;66057;54.718;18.426;2023-07-20T02:34:08;47328.16;;;-143.26;80.80
77106;BME280;66057;54.718;18.426;2023-07-20T02:36:35;47291.09;;;-143.26;81.00
77106;BME280;66057;54.718;18.426;2023-07-20T02:39:01;47343.75;;;-143.26;81.45
77106;BME280;66057;54.718;18.426;2023-07-20T02:41:33;47314.50;;;-143.26;81.22
77106;BME280;66057;54.718;18.426;2023-07-20T02:43:59;47332.06;;;-143.26;81.65
77106;BME280;66057;54.718;18.426;2023-07-20T02:46:24;47324.25;;;-143.26;81.24
77106;BME280;66057;54.718;18.426;2023-07-20T02:48:50;47318.41;;;-143.26;81.38
77106;BME280;66057;54.718;18.426;2023-07-20T02:51:16;47326.19;;;-143.26;81.47
77106;BME280;66057;54.718;18.426;2023-07-20T02:53:41;47320.34;;;-143.26;80.90
77106;BME280;66057;54.718;18.426;2023-07-20T02:56:08;47341.81;;;-143.26;81.08
77106;BME280;66057;54.718;18.426;2023-07-20T02:58:34;47306.69;;;-143.26;80.98
77106;BME280;66057;54.718;18.426;2023-07-20T03:01:03;47353.50;;;-143.26;81.35
77106;BME280;66057;54.718;18.426;2023-07-20T03:03:28;47279.38;;;-143.26;81.17
77106;BME280;66057;54.718;18.426;2023-07-20T03:05:54;47302.78;;;-143.26;81.12
77106;BME280;66057;54.718;18.426;2023-07-20T03:08:21;47332.06;;;-143.26;81.09
77106;BME280;66057;54.718;18.426;2023-07-20T03:10:47;47298.91;;;-143.26;81.09
77106;BME280;66057;54.718;18.426;2023-07-20T03:13:13;47341.81;;;-143.26;81.24
77106;BME280;66057;54.718;18.426;2023-07-20T03:15:39;47328.16;;;-143.26;80.90
77106;BME280;66057;54.718;18.426;2023-07-20T03:18:06;47320.34;;;-143.26;81.45
77106;BME280;66057;54.718;18.426;2023-07-20T03:20:32;47312.56;;;-143.26;81.17
77106;BME280;66057;54.718;18.426;2023-07-20T03:22:57;47302.78;;;-143.26;81.15
77106;BME280;66057;54.718;18.426;2023-07-20T03:25:23;47332.06;;;-143.26;81.24
77106;BME280;66057;54.718;18.426;2023-07-20T03:27:49;47339.84;;;-143.26;80.99
77106;BME280;66057;54.718;18.426;2023-07-20T03:30:15;47337.91;;;-143.26;80.75
77106;BME280;66057;54.718;18.426;2023-07-20T03:32:40;47312.56;;;-143.26;80.87
77106;BME280;66057;54.718;18.426;2023-07-20T03:35:07;47322.31;;;-143.26;80.84
77106;BME280;66057;54.718;18.426;2023-07-20T03:37:32;47302.78;;;-143.26;81.01
77106;BME280;66057;54.718;18.426;2023-07-20T03:40:01;47349.63;;;-143.26;81.82
77106;BME280;66057;54.718;18.426;2023-07-20T03:42:26;47314.50;;;-143.26;81.79
77106;BME280;66057;54.718;18.426;2023-07-20T03:44:52;47306.69;;;-143.26;82.57
77106;BME280;66057;54.718;18.426;2023-07-20T03:47:17;47291.09;;;-143.26;82.36
77106;BME280;66057;54.718;18.426;2023-07-20T03:49:43;47302.78;;;-143.26;81.72
77106;BME280;66057;54.718;18.426;2023-07-20T03:52:09;47314.50;;;-143.26;81.35
77106;BME280;66057;54.718;18.426;2023-07-20T03:54:35;47328.16;;;-143.26;82.08
77106;BME280;66057;54.718;18.426;2023-07-20T03:57:00;47310.59;;;-143.26;82.04
77106;BME280;66057;54.718;18.426;2023-07-20T03:59:26;47312.56;;;-143.26;81.51
77106;BME280;66057;54.718;18.426;2023-07-20T04:01:52;47310.59;;;-143.26;81.28
77106;BME280;66057;54.718;18.426;2023-07-20T04:04:18;47310.59;;;-143.26;81.40
77106;BME280;66057;54.718;18.426;2023-07-20T04:06:43;47306.69;;;-143.26;81.25
77106;BME280;66057;54.718;18.426;2023-07-20T04:09:12;47324.25;;;-143.26;81.08
77106;BME280;66057;54.718;18.426;2023-07-20T04:11:38;47328.16;;;-143.26;80.91
77106;BME280;66057;54.718;18.426;2023-07-20T04:14:04;47273.53;;;-143.26;81.00
77106;BME280;66057;54.718;18.426;2023-07-20T04:16:30;47306.69;;;-143.26;81.19
77106;BME280;66057;54.718;18.426;2023-07-20T04:18:57;47334.00;;;-143.26;80.96
77106;BME280;66057;54.718;18.426;2023-07-20T04:21:25;47314.50;;;-143.26;81.22
77106;BME280;66057;54.718;18.426;2023-07-20T04:23:51;47355.47;;;-143.26;80.95
77106;BME280;66057;54.718;18.426;2023-07-20T04:26:17;47318.41;;;-143.26;81.32
77106;BME280;66057;54.718;18.426;2023-07-20T04:28:43;47291.09;;;-143.26;81.45
77106;BME280;66057;54.718;18.426;2023-07-20T04:31:14;47289.13;;;-143.26;81.72
77106;BME280;66057;54.718;18.426;2023-07-20T04:33:41;47312.56;;;-143.26;81.56
77106;BME280;66057;54.718;18.426;2023-07-20T04:36:07;47357.41;;;-143.26;81.52
77106;BME280;66057;54.718;18.426;2023-07-20T04:38:33;47295.00;;;-143.26;82.20
77106;BME280;66057;54.718;18.426;2023-07-20T04:40:59;47306.69;;;-143.26;81.91
77106;BME280;66057;54.718;18.426;2023-07-20T04:43:25;47302.78;;;-143.26;82.01
77106;BME280;66057;54.718;18.426;2023-07-20T04:45:52;47316.44;;;-143.26;81.65
77106;BME280;66057;54.718;18.426;2023-07-20T04:48:18;47295.00;;;-143.26;81.18
77106;BME280;66057;54.718;18.426;2023-07-20T04:50:45;47296.94;;;-143.26;80.66
77106;BME280;66057;54.718;18.426;2023-07-20T04:53:12;47314.50;;;-143.26;80.92
77106;BME280;66057;54.718;18.426;2023-07-20T04:55:38;47335.97;;;-143.26;80.09
77106;BME280;66057;54.718;18.426;2023-07-20T04:58:05;47304.75;;;-143.26;80.14
77106;BME280;66057;54.718;18.426;2023-07-20T05:00:32;47308.66;;;-143.26;80.20
77106;BME280;66057;54.718;18.426;2023-07-20T05:02:58;47322.31;;;-143.26;80.31
77106;BME280;66057;54.718;18.426;2023-07-20T05:05:24;47314.50;;;-143.26;81.39
77106;BME280;66057;54.718;18.426;2023-07-20T05:07:50;47302.78;;;-143.26;80.05
77106;BME280;66057;54.718;18.426;2023-07-20T05:10:16;47308.66;;;-143.26;80.21
77106;BME280;66057;54.718;18.426;2023-07-20T05:12:42;47330.09;;;-143.26;80.74
77106;BME280;66057;54.718;18.426;2023-07-20T05:15:08;47351.56;;;-143.26;80.20
77106;BME280;66057;54.718;18.426;2023-07-20T05:17:34;47334.00;;;-143.26;80.43
77106;BME280;66057;54.718;18.426;2023-07-20T05:19:59;47314.50;;;-143.26;80.37
77106;BME280;66057;54.718;18.426;2023-07-20T05:22:25;47318.41;;;-143.26;80.31
77106;BME280;66057;54.718;18.426;2023-07-20T05:24:51;47341.81;;;-143.26;80.53
77106;BME280;66057;54.718;18.426;2023-07-20T05:27:17;47326.19;;;-143.26;80.98
77106;BME280;66057;54.718;18.426;2023-07-20T05:29:44;47302.78;;;-143.26;81.64
77106;BME280;66057;54.718;18.426;2023-07-20T05:32:10;47312.56;;;-143.26;81.20
77106;BME280;66057;54.718;18.426;2023-07-20T05:34:35;47314.50;;;-143.26;81.47
77106;BME280;66057;54.718;18.426;2023-07-20T05:37:07;47291.09;;;-143.26;81.77
77106;BME280;66057;54.718;18.426;2023-07-20T05:39:36;47304.75;;;-143.26;82.58
77106;BME280;66057;54.718;18.426;2023-07-20T05:42:02;47318.41;;;-143.26;81.92
77106;BME280;66057;54.718;18.426;2023-07-20T05:44:28;47363.28;;;-143.26;82.05
77106;BME280;66057;54.718;18.426;2023-07-20T05:46:54;47300.84;;;-143.26;82.64
77106;BME280;66057;54.718;18.426;2023-07-20T05:49:19;47293.03;;;-143.26;82.72
77106;BME280;66057;54.718;18.426;2023-07-20T05:51:45;47349.63;;;-143.26;81.68
77106;BME280;66057;54.718;18.426;2023-07-20T05:54:12;47300.84;;;-143.26;82.58
77106;BME280;66057;54.718;18.426;2023-07-20T05:56:37;47322.31;;;-143.26;81.56
77106;BME280;66057;54.718;18.426;2023-07-20T05:59:03;47322.31;;;-143.26;82.52
77106;BME280;66057;54.718;18.426;2023-07-20T06:01:29;47302.78;;;-143.26;81.40
77106;BME280;66057;54.718;18.426;2023-07-20T06:03:54;47330.09;;;-143.26;81.08
77106;BME280;66057;54.718;18.426;2023-07-20T06:06:20;47293.03;;;-143.26;81.62
77106;BME280;66057;54.718;18.426;2023-07-20T06:08:46;47306.69;;;-143.26;82.17
77106;BME280;66057;54.718;18.426;2023-07-20T06:11:12;47302.78;;;-143.26;82.47
77106;BME280;66057;54.718;18.426;2023-07-20T06:13:38;47283.28;;;-143.26;82.40
77106;BME280;66057;54.718;18.426;2023-07-20T06:16:04;47283.28;;;-143.26;81.38
77106;BME280;66057;54.718;18.426;2023-07-20T06:18:30;47318.41;;;-143.26;81.31
77106;BME280;66057;54.718;18.426;2023-07-20T06:20:58;47314.50;;;-143.26;80.65
77106;BME280;66057;54.718;18.426;2023-07-20T06:23:24;47339.84;;;-143.26;80.87
77106;BME280;66057;54.718;18.426;2023-07-20T06:25:50;47293.03;;;-143.26;81.77
77106;BME280;66057;54.718;18.426;2023-07-20T06:28:16;47357.41;;;-143.26;81.27
77106;BME280;66057;54.718;18.426;2023-07-20T06:30:43;47275.47;;;-143.26;81.89
77106;BME280;66057;54.718;18.426;2023-07-20T06:33:09;47322.31;;;-143.26;81.30
77106;BME280;66057;54.718;18.426;2023-07-20T06:35:35;47326.19;;;-143.26;81.67
77106;BME280;66057;54.718;18.426;2023-07-20T06:38:02;47289.13;;;-143.26;81.43
77106;BME280;66057;54.718;18.426;2023-07-20T06:40:30;47279.38;;;-143.26;80.98
77106;BME280;66057;54.718;18.426;2023-07-20T06:42:56;47300.84;;;-143.26;81.45
77106;BME280;66057;54.718;18.426;2023-07-20T06:45:21;47296.94;;;-143.26;80.77
77106;BME280;66057;54.718;18.426;2023-07-20T06:47:47;47302.78;;;-143.26;82.06
77106;BME280;66057;54.718;18.426;2023-07-20T06:50:13;47353.50;;;-143.26;81.72
77106;BME280;66057;54.718;18.426;2023-07-20T06:52:39;47334.00;;;-143.26;83.33
77106;BME280;66057;54.718;18.426;2023-07-20T06:55:06;47291.09;;;-143.26;83.07
77106;BME280;66057;54.718;18.426;2023-07-20T06:57:32;47322.31;;;-143.26;82.93
77106;BME280;66057;54.718;18.426;2023-07-20T06:59:58;47302.78;;;-143.26;83.03
77106;BME280;66057;54.718;18.426;2023-07-20T07:02:24;47308.66;;;-143.26;82.99
77106;BME280;66057;54.718;18.426;2023-07-20T07:04:50;47285.22;;;-143.26;82.11
77106;BME280;66057;54.718;18.426;2023-07-20T07:07:15;47310.59;;;-143.26;82.14
77106;BME280;66057;54.718;18.426;2023-07-20T07:09:42;47330.09;;;-143.26;81.76
77106;BME280;66057;54.718;18.426;2023-07-20T07:12:08;47308.66;;;-143.26;82.06
77106;BME280;66057;54.718;18.426;2023-07-20T07:14:34;47339.84;;;-143.26;81.04
77106;BME280;66057;54.718;18.426;2023-07-20T07:17:00;47341.81;;;-143.26;80.89
77106;BME280;66057;54.718;18.426;2023-07-20T07:19:26;47322.31;;;-143.26;79.28
77106;BME280;66057;54.718;18.426;2023-07-20T07:21:52;47300.84;;;-143.26;77.41
77106;BME280;66057;54.718;18.426;2023-07-20T07:24:21;47295.00;;;-143.26;77.63
77106;BME280;66057;54.718;18.426;2023-07-20T07:26:49;47316.44;;;-143.26;77.60
77106;BME280;66057;54.718;18.426;2023-07-20T07:29:15;47300.84;;;-143.26;76.69
77106;BME280;66057;54.718;18.426;2023-07-20T07:31:41;47304.75;;;-143.26;76.45
77106;BME280;66057;54.718;18.426;2023-07-20T07:34:07;47287.19;;;-143.26;76.86
77106;BME280;66057;54.718;18.426;2023-07-20T07:36:37;47310.59;;;-143.26;77.10
77106;BME280;66057;54.718;18.426;2023-07-20T07:39:03;47283.28;;;-143.26;76.33
77106;BME280;66057;54.718;18.426;2023-07-20T07:41:30;47275.47;;;-143.26;76.20
77106;BME280;66057;54.718;18.426;2023-07-20T07:43:56;47291.09;;;-143.26;74.88
77106;BME280;66057;54.718;18.426;2023-07-20T07:46:22;47285.22;;;-143.26;74.93
77106;BME280;66057;54.718;18.426;2023-07-20T07:48:48;47306.69;;;-143.26;73.71
77106;BME280;66057;54.718;18.426;2023-07-20T07:51:15;47263.78;;;-143.26;74.30
77106;BME280;66057;54.718;18.426;2023-07-20T07:53:41;47293.03;;;-143.26;72.94
77106;BME280;66057;54.718;18.426;2023-07-20T07:56:07;47279.38;;;-143.26;71.99
77106;BME280;66057;54.718;18.426;2023-07-20T07:58:34;47275.47;;;-143.26;70.79
77106;BME280;66057;54.718;18.426;2023-07-20T08:01:00;47291.09;;;-143.26;71.42
77106;BME280;66057;54.718;18.426;2023-07-20T08:03:33;47296.94;;;-143.26;69.73
77106;BME280;66057;54.718;18.426;2023-07-20T08:05:59;47271.59;;;-143.26;70.07
77106;BME280;66057;54.718;18.426;2023-07-20T08:08:27;47248.16;;;-143.26;70.84
77106;BME280;66057;54.718;18.426;2023-07-20T08:10:55;47347.66;;;-143.26;70.15
77106;BME280;66057;54.718;18.426;2023-07-20T08:13:21;47255.97;;;-143.26;68.95
77106;BME280;66057;54.718;18.426;2023-07-20T08:15:50;47308.66;;;-143.26;67.95
77106;BME280;66057;54.718;18.426;2023-07-20T08:18:19;47252.06;;;-143.26;68.89
77106;BME280;66057;54.718;18.426;2023-07-20T08:20:45;47265.72;;;-143.26;69.03
77106;BME280;66057;54.718;18.426;2023-07-20T08:23:13;47271.59;;;-143.26;66.80
77106;BME280;66057;54.718;18.426;2023-07-20T08:25:39;47267.69;;;-143.26;68.26
77106;BME280;66057;54.718;18.426;2023-07-20T08:28:13;47261.81;;;-143.26;68.19
77106;BME280;66057;54.718;18.426;2023-07-20T08:30:44;47285.22;;;-143.26;66.85
77106;BME280;66057;54.718;18.426;2023-07-20T08:33:17;47224.75;;;-143.26;65.97
77106;BME280;66057;54.718;18.426;2023-07-20T08:35:47;47252.06;;;-143.26;64.87
77106;BME280;66057;54.718;18.426;2023-07-20T08:38:33;47277.44;;;-143.26;65.24
77106;BME280;66057;54.718;18.426;2023-07-20T08:41:01;47236.47;;;-143.26;64.86
77106;BME280;66057;54.718;18.426;2023-07-20T08:43:42;47273.53;;;-143.26;64.50
77106;BME280;66057;54.718;18.426;2023-07-20T08:46:12;47238.41;;;-143.26;64.93
77106;BME280;66057;54.718;18.426;2023-07-20T08:48:43;47205.25;;;-143.26;63.85
77106;BME280;66057;54.718;18.426;2023-07-20T08:51:11;47265.72;;;-143.26;64.01
77106;BME280;66057;54.718;18.426;2023-07-20T08:53:41;47236.47;;;-143.26;63.62
77106;BME280;66057;54.718;18.426;2023-07-20T08:56:24;47248.16;;;-143.26;64.04
77106;BME280;66057;54.718;18.426;2023-07-20T08:58:53;47254.03;;;-143.26;63.42
77106;BME280;66057;54.718;18.426;2023-07-20T09:01:22;47263.78;;;-143.26;63.79
77106;BME280;66057;54.718;18.426;2023-07-20T09:03:51;47279.38;;;-143.26;63.42
77106;BME280;66057;54.718;18.426;2023-07-20T09:06:17;47234.50;;;-143.26;63.06
77106;BME280;66057;54.718;18.426;2023-07-20T09:08:44;47265.72;;;-143.26;59.62
77106;BME280;66057;54.718;18.426;2023-07-20T09:11:11;47236.47;;;-143.26;59.48
77106;BME280;66057;54.718;18.426;2023-07-20T09:13:38;47257.94;;;-143.26;59.79
77106;BME280;66057;54.718;18.426;2023-07-20T09:16:04;47252.06;;;-143.26;59.86
77106;BME280;66057;54.718;18.426;2023-07-20T09:18:31;47220.84;;;-143.26;59.70
77106;BME280;66057;54.718;18.426;2023-07-20T09:21:05;47261.81;;;-143.26;59.42
77106;BME280;66057;54.718;18.426;2023-07-20T09:23:32;47230.63;;;-143.26;59.34
77106;BME280;66057;54.718;18.426;2023-07-20T09:25:58;47271.59;;;-143.26;59.17
77106;BME280;66057;54.718;18.426;2023-07-20T09:28:27;47224.75;;;-143.26;60.95
77106;BME280;66057;54.718;18.426;2023-07-20T09:30:54;47199.41;;;-143.26;61.19
77106;BME280;66057;54.718;18.426;2023-07-20T09:33:24;47255.97;;;-143.26;61.12
77106;BME280;66057;54.718;18.426;2023-07-20T09:35:53;47242.31;;;-143.26;61.15
77106;BME280;66057;54.718;18.426;2023-07-20T09:38:21;47197.44;;;-143.26;61.48
77106;BME280;66057;54.718;18.426;2023-07-20T09:40:51;47232.56;;;-143.26;60.95
77106;BME280;66057;54.718;18.426;2023-07-20T09:43:19;47201.34;;;-143.26;60.39
77106;BME280;66057;54.718;18.426;2023-07-20T09:45:47;47193.53;;;-143.26;60.43
77106;BME280;66057;54.718;18.426;2023-07-20T09:48:24;47197.44;;;-143.26;57.39
77106;BME280;66057;54.718;18.426;2023-07-20T09:50:50;47220.84;;;-143.26;57.53
77106;BME280;66057;54.718;18.426;2023-07-20T09:53:41;47222.81;;;-143.26;58.54
77106;BME280;66057;54.718;18.426;2023-07-20T09:56:34;47226.72;;;-143.26;62.14
77106;BME280;66057;54.718;18.426;2023-07-20T09:59:01;47209.16;;;-143.26;66.78
77106;BME280;66057;54.718;18.426;2023-07-20T10:01:29;47216.97;;;-143.26;67.96
77106;BME280;66057;54.718;18.426;2023-07-20T10:03:58;47232.56;;;-143.26;71.05
77106;BME280;66057;54.718;18.426;2023-07-20T10:06:32;47255.97;;;-143.26;71.43
77106;BME280;66057;54.718;18.426;2023-07-20T10:09:10;47263.78;;;-143.26;72.20
77106;BME280;66057;54.718;18.426;2023-07-20T10:11:42;47216.97;;;-143.26;71.00
77106;BME280;66057;54.718;18.426;2023-07-20T10:14:11;47267.69;;;-143.26;74.11
77106;BME280;66057;54.718;18.426;2023-07-20T10:16:50;47287.19;;;-143.26;77.32
77106;BME280;66057;54.718;18.426;2023-07-20T10:19:38;47287.19;;;-143.26;79.86
77106;BME280;66057;54.718;18.426;2023-07-20T10:22:19;47296.94;;;-143.26;81.59
77106;BME280;66057;54.718;18.426;2023-07-20T10:24:50;47302.78;;;-143.26;81.24
77106;BME280;66057;54.718;18.426;2023-07-20T10:27:20;47261.81;;;-143.26;80.20
77106;BME280;66057;54.718;18.426;2023-07-20T10:29:51;47285.22;;;-143.26;80.02
77106;BME280;66057;54.718;18.426;2023-07-20T10:32:24;47275.47;;;-143.26;81.83
77106;BME280;66057;54.718;18.426;2023-07-20T10:34:56;47291.09;;;-143.26;80.52
77106;BME280;66057;54.718;18.426;2023-07-20T10:37:47;47283.28;;;-143.26;81.00
77106;BME280;66057;54.718;18.426;2023-07-20T10:40:39;47300.84;;;-143.26;80.00
77106;BME280;66057;54.718;18.426;2023-07-20T10:43:19;47330.09;;;-143.26;79.98
77106;BME280;66057;54.718;18.426;2023-07-20T10:45:50;47291.09;;;-143.26;80.38
77106;BME280;66057;54.718;18.426;2023-07-20T10:48:21;47267.69;;;-143.26;80.14
77106;BME280;66057;54.718;18.426;2023-07-20T10:51:22;47312.56;;;-143.26;80.42
77106;BME280;66057;54.718;18.426;2023-07-20T10:53:49;47257.94;;;-143.26;82.20
77106;BME280;66057;54.718;18.426;2023-07-20T10:56:21;47281.34;;;-143.26;81.33
77106;BME280;66057;54.718;18.426;2023-07-20T10:58:47;47287.19;;;-143.26;81.26
77106;BME280;66057;54.718;18.426;2023-07-20T11:01:15;47291.09;;;-143.26;80.15
77106;BME280;66057;54.718;18.426;2023-07-20T11:03:50;47259.88;;;-143.26;80.85
77106;BME280;66057;54.718;18.426;2023-07-20T11:09:05;47255.97;;;-143.26;82.79
77106;BME280;66057;54.718;18.426;2023-07-20T11:11:49;47252.06;;;-143.26;82.84
77106;BME280;66057;54.718;18.426;2023-07-20T11:14:26;47306.69;;;-143.26;83.47
77106;BME280;66057;54.718;18.426;2023-07-20T11:16:52;47261.81;;;-143.26;82.58
77106;BME280;66057;54.718;18.426;2023-07-20T11:19:24;47298.91;;;-143.26;83.27
77106;BME280;66057;54.718;18.426;2023-07-20T11:21:57;47248.16;;;-143.26;83.30
77106;BME280;66057;54.718;18.426;2023-07-20T11:24:24;47287.19;;;-143.26;83.47
77106;BME280;66057;54.718;18.426;2023-07-20T11:26:54;47271.59;;;-143.26;83.38
77106;BME280;66057;54.718;18.426;2023-07-20T11:29:22;47283.28;;;-143.26;82.72
77106;BME280;66057;54.718;18.426;2023-07-20T11:31:53;47279.38;;;-143.26;83.49
77106;BME280;66057;54.718;18.426;2023-07-20T11:34:55;47289.13;;;-143.26;83.83
77106;BME280;66057;54.718;18.426;2023-07-20T11:37:25;47279.38;;;-143.26;83.22
77106;BME280;66057;54.718;18.426;2023-07-20T11:39:56;47296.94;;;-143.26;83.35
77106;BME280;66057;54.718;18.426;2023-07-20T11:42:36;47291.09;;;-143.26;83.77
77106;BME280;66057;54.718;18.426;2023-07-20T11:45:03;47291.09;;;-143.26;83.61
77106;BME280;66057;54.718;18.426;2023-07-20T11:47:30;47302.78;;;-143.26;83.33
77106;BME280;66057;54.718;18.426;2023-07-20T11:50:05;47310.59;;;-143.26;83.62
77106;BME280;66057;54.718;18.426;2023-07-20T11:52:34;47316.44;;;-143.26;83.31
77106;BME280;66057;54.718;18.426;2023-07-20T11:55:04;47295.00;;;-143.26;83.86
77106;BME280;66057;54.718;18.426;2023-07-20T11:57:31;47273.53;;;-143.26;83.89
77106;BME280;66057;54.718;18.426;2023-07-20T12:00:03;47281.34;;;-143.26;84.12
77106;BME280;66057;54.718;18.426;2023-07-20T12:02:37;47287.19;;;-143.26;83.18
77106;BME280;66057;54.718;18.426;2023-07-20T12:05:07;47298.91;;;-143.26;83.81
77106;BME280;66057;54.718;18.426;2023-07-20T12:07:50;47318.41;;;-143.26;84.42
77106;BME280;66057;54.718;18.426;2023-07-20T12:10:29;47295.00;;;-143.26;83.91
77106;BME280;66057;54.718;18.426;2023-07-20T12:13:03;47271.59;;;-143.26;84.06
77106;BME280;66057;54.718;18.426;2023-07-20T12:15:30;47291.09;;;-143.26;84.09
77106;BME280;66057;54.718;18.426;2023-07-20T12:18:03;47304.75;;;-143.26;84.62
77106;BME280;66057;54.718;18.426;2023-07-20T12:20:45;47267.69;;;-143.26;83.81
77106;BME280;66057;54.718;18.426;2023-07-20T12:23:48;47275.47;;;-143.26;84.12
77106;BME280;66057;54.718;18.426;2023-07-20T12:27:17;47320.34;;;-143.26;84.25
77106;BME280;66057;54.718;18.426;2023-07-20T12:29:50;47271.59;;;-143.26;84.49
77106;BME280;66057;54.718;18.426;2023-07-20T12:32:17;47279.38;;;-143.26;83.86
77106;BME280;66057;54.718;18.426;2023-07-20T12:34:43;47320.34;;;-143.26;83.69
77106;BME280;66057;54.718;18.426;2023-07-20T12:37:18;47287.19;;;-143.26;82.63
77106;BME280;66057;54.718;18.426;2023-07-20T12:40:06;47320.34;;;-143.26;83.93
77106;BME280;66057;54.718;18.426;2023-07-20T12:42:38;47326.19;;;-143.26;83.72
77106;BME280;66057;54.718;18.426;2023-07-20T12:45:27;47263.78;;;-143.26;84.04